AirNav   Pilot Hours Calculator
 
 1146 users online  

0KS7 Mono Aircraft Airport
Cheney, Kansas, USA

GOING TO CHENEY?


FAA INFORMATION EFFECTIVE 30 DECEMBER 2021

Location

FAA Identifier: 0KS7
Lat/Long: 37-42-00.6700N 097-53-13.9900W
37-42.011167N 097-53.233167W
37.7001861,-97.8872194
(estimated)
Elevation: 1510 ft. / 460 m (estimated)
Variation: 07E (1985)
From city: 10 miles NW of CHENEY, KS
Time zone: UTC -6 (UTC -5 during Daylight Saving Time)
Zip code: 67025

Airport Operations

Airport use: Private use. Permission required prior to landing
Activation date: 05/1991
Control tower: no
ARTCC: KANSAS CITY CENTER
FSS: WICHITA FLIGHT SERVICE STATION
Attendance: CONTINUOUS
Segmented circle: no

Airport Communications

WX AWOS-3PT at 9K8 (11 nm W): 119.325 (620-532-1272)

Nearby radio navigation aids

VOR radial/distance  VOR name  Freq  Var
ICTr252/14.7WICHITA VORTAC113.8007E
HUTr169/17.9HUTCHINSON VOR/DME116.8004E

Airport Services

Fuel available: MOGAS

Runway Information

Runway 18/36

Dimensions: 2000 x 75 ft. / 610 x 23 m
Surface: turf
RUNWAY 18  RUNWAY 36
Latitude: 37-42.175833N37-41.846333N
Longitude: 097-53.231167W097-53.234833W
Elevation: 1510.0 ft.1503.0 ft.
Traffic pattern: leftleft
Runway heading: 173 magnetic, 180 true353 magnetic, 360 true

Airport Ownership and Management from official FAA records

Ownership: Privately-owned
Owner: EDWARD & LEO SAURENMAN
RR 2 BOX 186A
CHENEY, KANSAS 67025
Phone 316-297-4411
Manager: EDWARD & LEO SAURENMAN
RR 2 BOX 186A
CHENEY, KANSAS 67025
Phone 316-297-4411

Additional Remarks

E11 PRVDD APCH MAINT FOR A 20:1 GLIDE SLOPE; MAINT TRANSITIONAL SURFACE FOR A 7:1 SLOPE.
FOR CD CTC WICHITA APCH AT 316-350-1520.

Instrument Procedures

There are no published instrument procedures at 0KS7.

Some nearby airports with instrument procedures:

9K8 - Kingman Airport/Clyde Cessna Field (11 nm W)
KICT - Wichita Dwight D Eisenhower National Airport (22 nm E)
KHUT - Hutchinson Regional Airport (22 nm N)
8K2 - Harper Municipal Airport (26 nm S)
KIAB - Mc Connell Air Force Base (30 nm E)
 
Loc | Ops | Rwys | IFR | FBO | Links
Com | Nav | Svcs | Stats | Notes
Area around 0KS7 (Mono Aircraft Airport)
 
Road maps at: MapQuest Bing Google
 
Aerial photo
No photo
 
Sectional chart

 
Airport distance calculator
Flying to Mono Aircraft Airport? Find the distance to fly.

From to 0KS7

Sunrise and sunset
Times for 24-Jan-2022
 Local
(UTC-6)
 Zulu
(UTC)
Morning civil twilight07:1413:14
Sunrise07:4213:42
Sunset17:4523:45
Evening civil twilight18:1300:13

Current date and time
Zulu (UTC)  24-Jan-2022 14:27:14
Local (UTC-6)  24-Jan-2022 08:27:14
 
METAR
KICT 
22nm E 
241353Z 25006KT 10SM FEW180 00/M04 A2979 RMK AO2 SLP094 T00001044
KHUT 
22nm N 
241352Z 28005KT 10SM CLR M01/M06 A2979 RMK AO2 SLP090 T10111056
KIAB 
30nm E 
241356Z AUTO 27008KT 10SM CLR 02/M04 A2979 RMK AO2 SLP099 T00201039 $
KBEC 
32nm E 
241415Z AUTO 25006KT 10SM CLR 03/M03 A2978 RMK AO2 T00251033
KAAO 
32nm E 
241354Z AUTO 25009KT 10SM CLR 04/M04 A2978 RMK AO2 SLP089 T00391039
KEWK 
36nm NE 
241356Z AUTO 26009KT 10SM CLR 01/M03 A2979 RMK AO2 PRESRR SLP092 T00111033 FZRANO
K1K1 
37nm E 
241410Z AUTO 24004KT 10SM CLR 03/M04 A2978 RMK AO2 T00251039
K3AU 
38nm E 
241415Z AUTO 00000KT 10SM CLR 00/M05 A2979 RMK AO2
KP28 
40nm SW 
241256Z AUTO 33005KT M01/M06 A2980 RMK AO1 SLP097 T10111056 $
KPTT 
41nm W 
241415Z AUTO 30010KT 10SM CLR 00/M06 A2982 RMK AO2 T00001057
TAF
KICT 
22nm E 
241125Z 2412/2512 25007KT P6SM BKN120 FM241500 28010KT P6SM SCT150 FM241700 35016G26KT P6SM SCT200 FM250000 01013KT P6SM SCT250
KHUT 
22nm N 
241125Z 2412/2512 29009KT P6SM SCT150 FM241600 35016G26KT P6SM FEW200 FM250000 01011KT P6SM SCT150
NOTAMs
Click for the latest NOTAMs
NOTAMs are issued by the DoD/FAA and will open in a separate window not controlled by AirNav.

 

 
 

Would you like to see your business listed on this page?

 If your business provides an interesting product or service to pilots, flight crews, aircraft, or users of the Mono Aircraft Airport, you should consider listing it here.  To start the listing process, click on the button below
 
Add a business
 

Other Pages about Mono Aircraft Airport

Update a link
 
Copyright © AirNav, LLC. All rights reserved. Privacy Policy  Contact